METAR Data
IDs: Format: Raw Decoded Include TAF

Data at: 1542 UTC 21 May 2019

KIFA 211535Z AUTO 09021G29KT 10SM OVC013 09/06 A2996 RMK AO2 T00850060
KIFA 211515Z AUTO 10018G27KT 10SM OVC013 09/06 A2997 RMK AO2 T00870060
KIFA 211455Z AUTO 10022G31KT 10SM OVC013 09/06 A2999 RMK AO2 T00860060
KIFA 211435Z AUTO 11021KT 10SM OVC013 09/06 A2999 RMK AO2 T00870063
KIFA 211415Z AUTO 10022G29KT 10SM OVC015 09/06 A2999 RMK AO2 T00900062
KIFA 211355Z AUTO 10019G29KT 10SM BKN019 OVC027 09/06 A2999 RMK AO2 T00900060
KIFA 211335Z AUTO 10026G37KT 10SM BKN019 OVC025 09/06 A2999 RMK AO2 T00880057
KIFA 211315Z AUTO 10027G33KT 10SM OVC017 09/06 A3000 RMK AO2 T00920062
KIFA 211255Z AUTO 11017G24KT 10SM OVC014 09/07 A3000 RMK AO2 T00900071
KIFA 211235Z AUTO 11018G26KT 10SM BKN016 BKN024 OVC035 09/07 A2999 RMK AO2 T00920067
KIFA 211215Z AUTO 11019G25KT 10SM SCT021 SCT026 OVC035 10/07 A2999 RMK AO2 T00950067
KIFA 211155Z AUTO 11021G26KT 10SM SCT024 OVC035 10/06 A2999 RMK AO2 T00950064 10111 20095
KIFA 211135Z AUTO 11022G28KT 10SM BKN021 OVC037 10/06 A3000 RMK AO2 T00980064
KIFA 211115Z AUTO 10013KT 10SM SCT023 BKN040 OVC046 10/07 A3000 RMK AO2 T01000070
KIFA 211055Z AUTO 09011G16KT 10SM BKN048 OVC065 10/07 A3000 RMK AO2 T01000067
KIFA 211035Z AUTO 09011G14KT 10SM OVC065 10/07 A3000 RMK AO2 T01010067
KIFA 211015Z AUTO 08010KT 10SM OVC065 10/07 A3001 RMK AO2 T01020065
KIFA 210955Z AUTO 09012KT 10SM BKN065 BKN110 10/07 A3001 RMK AO2 T01020065
KIFA 210935Z AUTO 09011G16KT 10SM SCT120 10/06 A3000 RMK AO2 T01020064
KIFA 210915Z AUTO 09011KT 10SM SCT085 BKN120 10/06 A3001 RMK AO2 T01040063
KIFA 210855Z AUTO 09012G16KT 10SM BKN085 11/07 A3001 RMK AO2 T01050065
KIFA 210835Z AUTO 09010G15KT 10SM SCT085 11/06 A3002 RMK AO2 T01060062
KIFA 210815Z AUTO 08014G18KT 10SM SCT075 11/06 A3000 RMK AO2 T01060061
KIFA 210755Z AUTO 08015KT 10SM SCT065 OVC075 11/06 A3000 RMK AO2 T01080060
KIFA 210735Z AUTO 09012G18KT 10SM BKN065 OVC075 11/06 A3001 RMK AO2 T01080062
KIFA 210655Z AUTO 09012G16KT 10SM OVC075 11/07 A3004 RMK AO2 T01100066
KIFA 210635Z AUTO 09010KT 10SM OVC075 11/07 A3005 RMK AO2 T01100066
KIFA 210615Z AUTO 09012KT 10SM OVC075 11/07 A3005 RMK AO2 T01100068
KIFA 210555Z AUTO 08013KT 10SM BKN075 OVC085 11/07 A3005 RMK AO2 T01100067 10140 20110 401480048
KIFA 210535Z AUTO 09011KT 10SM SCT075 OVC090 11/07 A3006 RMK AO2 T01110067
KIFA 210515Z AUTO 09011KT 10SM OVC090 11/07 A3004 RMK AO2 T01120066
KIFA 210455Z AUTO 09013KT 10SM OVC090 11/07 A3005 RMK AO2 T01130065
KIFA 210435Z AUTO 09012KT 10SM OVC100 12/07 A3005 RMK AO2 T01150065
KIFA 210415Z AUTO 08014G17KT 10SM OVC110 12/07 A3006 RMK AO2 T01170065
KIFA 210355Z AUTO 08013KT 10SM SCT095 BKN120 12/06 A3006 RMK AO2 T01180063
KIFA 210335Z AUTO 09010KT 10SM CLR 12/06 A3008 RMK AO2 T01180064
KIFA 210315Z AUTO 08009KT 10SM CLR 12/06 A3007 RMK AO2 T01200063
KIFA 210255Z AUTO 08010KT 10SM CLR 12/06 A3008 RMK AO2 T01200064
KIFA 210235Z AUTO 08008KT 10SM CLR 12/07 A3008 RMK AO2 T01200065
KIFA 210215Z AUTO 10005KT 10SM CLR 12/07 A3010 RMK AO2 T01200065
KIFA 210155Z AUTO 09005KT 10SM 12/06 A3009 RMK AO2 T01230064
KIFA 210135Z AUTO 09007KT 10SM 13/06 A3008 RMK AO2 T01280059
KIFA 210115Z AUTO 08008KT 10SM 13/06 A3008 RMK AO2 T01300057
KIFA 210055Z AUTO 08010KT 10SM 13/06 A3008 RMK AO2 T01320055
KIFA 210035Z AUTO 07008KT 10SM CLR 14/05 A3009 RMK AO2 T01350052
KIFA 210015Z AUTO 08009KT 10SM CLR 14/05 A3009 RMK AO2 T01380052
KIFA 202355Z AUTO 07011KT 10SM CLR 14/05 A3008 RMK AO2 T01410049 10148 20122
KIFA 202335Z AUTO 08012KT 10SM CLR 14/05 A3009 RMK AO2 T01410047
KIFA 202315Z AUTO 10008KT 10SM SCT046 14/05 A3010 RMK AO2 T01430050
KIFA 202255Z AUTO 08009KT 10SM SCT046 14/05 A3011 RMK AO2 T01420046
KIFA 202235Z AUTO 08009G14KT 10SM SCT045 15/05 A3012 RMK AO2 T01450047
KIFA 202215Z AUTO 07009KT 10SM SCT045 15/05 A3013 RMK AO2 T01450049
KIFA 202155Z AUTO 08009KT 10SM SCT045 15/05 A3013 RMK AO2 T01450046
KIFA 202135Z AUTO 08010KT 10SM BKN045 15/05 A3014 RMK AO2 T01470046
KIFA 202115Z AUTO 07008KT 10SM OVC045 15/04 A3013 RMK AO2 T01450044
KIFA 202055Z AUTO 10007KT 10SM OVC045 14/05 A3014 RMK AO2 T01430050
KIFA 202035Z AUTO 02005KT 10SM BKN045 14/05 A3014 RMK AO2 T01420048
KIFA 202015Z AUTO 06008KT 10SM SCT043 14/05 A3015 RMK AO2 T01440050
KIFA 201955Z AUTO 05007KT 10SM BKN043 14/05 A3014 RMK AO2 T01430047
KIFA 201935Z AUTO 06006KT 10SM BKN041 14/05 A3014 RMK AO2 T01400046
KIFA 201915Z AUTO 03007KT 10SM BKN041 14/05 A3014 RMK AO2 T01380048
KIFA 201855Z AUTO 05008G16KT 10SM BKN039 13/04 A3014 RMK AO2 T01340044
KIFA 201835Z AUTO 04010G14KT 10SM BKN039 13/05 A3014 RMK AO2 T01330048
KIFA 201815Z AUTO 02009KT 10SM BKN037 13/05 A3014 RMK AO2 T01280054
KIFA 201755Z AUTO 01008KT 10SM BKN039 12/05 A3016 RMK AO2 T01240050 10126 20048
KIFA 201735Z AUTO 01009KT 10SM SCT037 12/04 A3018 RMK AO2 T01240041
KIFA 201715Z AUTO 04008G17KT 10SM SCT035 12/04 A3018 RMK AO2 T01220042
KIFA 201655Z AUTO 02013G16KT 10SM SCT033 12/04 A3017 RMK AO2 T01180044
KIFA 201635Z AUTO 01010KT 10SM SCT033 11/04 A3016 RMK AO2 T01140037
KIFA 201615Z AUTO 02011G16KT 10SM SCT033 11/03 A3016 RMK AO2 T01070033
KIFA 201555Z AUTO 36013G16KT 10SM CLR 10/04 A3017 RMK AO2 T01040036
KIFA 201535Z AUTO 02012G16KT 10SM CLR 10/04 A3018 RMK AO2 T01000035
KIFA 201515Z AUTO 01008G15KT 10SM CLR 10/04 A3019 RMK AO2 T00970038
KIFA 201455Z AUTO 02009KT 10SM SCT021 SCT027 09/03 A3017 RMK AO2 T00880034
KIFA 201435Z AUTO 02009KT 10SM BKN019 09/04 A3016 RMK AO2 T00860041
KIFA 201415Z AUTO 35009KT 10SM BKN019 BKN024 08/04 A3017 RMK AO2 T00760042
KIFA 201355Z AUTO 36011G17KT 10SM OVC015 07/03 A3016 RMK AO2 T00650034
KIFA 201335Z AUTO 36011G16KT 10SM OVC013 06/03 A3015 RMK AO2 T00570031
KIFA 201315Z AUTO 01011KT 10SM OVC013 06/03 A3013 RMK AO2 T00550032
KIFA 201255Z AUTO 36010G15KT 10SM OVC013 06/04 A3013 RMK AO2 T00550036
KIFA 201235Z AUTO 34012KT 10SM BKN015 OVC021 05/03 A3014 RMK AO2 T00520034
KIFA 201215Z AUTO 34010G15KT 10SM BKN016 OVC021 05/03 A3014 RMK AO2 T00520029
KIFA 201155Z AUTO 35009KT 10SM BKN016 05/03 A3013 RMK AO2 T00480025 10051 20048
KIFA 201135Z AUTO 34011KT 10SM OVC016 05/03 A3013 RMK AO2 T00480025
KIFA 201115Z AUTO 33010G16KT 10SM OVC016 05/03 A3011 RMK AO2 T00480026
KIFA 201055Z AUTO 33009KT 10SM OVC016 05/03 A3011 RMK AO2 T00490027
KIFA 201035Z AUTO 34008KT 10SM OVC016 05/03 A3010 RMK AO2 T00490027
KIFA 201015Z AUTO 33010KT 10SM OVC018 05/03 A3009 RMK AO2 T00480025
KIFA 200955Z AUTO 34011G15KT 10SM OVC018 05/03 A3008 RMK AO2 T00480025
KIFA 200935Z AUTO 34011KT 10SM OVC018 05/02 A3007 RMK AO2 T00500024
KIFA 200915Z AUTO 34009KT 10SM OVC018 05/03 A3006 RMK AO2 T00500025
KIFA 200855Z AUTO 35009KT 10SM OVC020 05/02 A3005 RMK AO2 T00480024
KIFA 200835Z AUTO 34014G17KT 10SM OVC020 05/02 A3005 RMK AO2 T00490022
KIFA 200815Z AUTO 34014G17KT 10SM OVC018 05/02 A3004 RMK AO2 T00500020
KIFA 200755Z AUTO 33010KT 10SM OVC018 05/03 A3005 RMK AO2 T00500026
KIFA 200735Z AUTO 34010KT 10SM OVC018 05/03 A3006 RMK AO2 T00500025
KIFA 200715Z AUTO 34011G15KT 10SM OVC020 05/02 A3005 RMK AO2 T00500022
KIFA 200655Z AUTO 33010G16KT 10SM OVC020 05/02 A3004 RMK AO2 T00480021
KIFA 200635Z AUTO 35015G21KT 10SM OVC018 05/02 A3004 RMK AO2 T00500020
KIFA 200615Z AUTO 34013KT 10SM OVC016 05/03 A3004 RMK AO2 T00500026
KIFA 200555Z AUTO 33012KT 10SM OVC014 05/03 A3003 RMK AO2 T00510033 10104 20051 401620051
KIFA 200535Z AUTO 33012KT 10SM OVC014 05/03 A3003 RMK AO2 T00530034
KIFA 200515Z AUTO 33012KT 10SM OVC014 05/03 A3002 RMK AO2 T00530034
KIFA 200455Z AUTO 34012G22KT 10SM BKN014 OVC048 06/04 A3001 RMK AO2 T00550035
KIFA 200435Z AUTO 34012G19KT 10SM BKN014 BKN022 OVC048 06/04 A2999 RMK AO2 T00600037
KIFA 200415Z AUTO 33016G21KT 10SM OVC012 06/04 A2999 RMK AO2 T00610042
KIFA 200355Z AUTO 34013G19KT 10SM BKN012 OVC018 07/05 A2997 RMK AO2 T00650048